Detall de PIREP

Printer-friendly versionPDF version

[2010/05/30 21:32:00]
Flight IATA:CT0002
Pilot Number:026
Company ICAO:CAT
Aircraft Type:DC85/A
PAX:0
Departing Airport: LFMT
Destination Airport: LFMP
Alternate Airport:LFBO
Online: VATSIM
Route:FJR
Flight Level:FL060
No Slew and time accel
No pause
Crash detect
Detect pilot in Cockpit between each 30 and 45 minutes
21:32 Zero fuel Weight: 185720 Lbs, Fuel Weight: 13818 Lbs
21:32 VATSIM:LFMT 302100Z 26011KT 230V290 9999 FEW040 BKN260 22/14 Q1017 NOSIG
21:32 VATSIM:LFMP 302100Z AUTO 30024G37KT 9999NDV NSC 22/12 Q1019
21:32 Parking Brakes off
21:34 Take-off
21:34 Take off Weight: 199069 Lbs
21:34 Wind: 308º @ 024 Knots Heading: 325º
21:34 POS N42º 44´ 57´´ E002º 51´ 56´´
21:34 Gear Up: 177 Knots
21:34 Flaps:2 at 177 Knots
21:34 Flaps:1 at 205 Knots
21:41 Flaps:2 at 199 Knots
21:44 Flaps:3 at 187 Knots
21:44 Gear Down: 184 Knots
21:45 Flaps:4 at 170 Knots
21:45
Flaps:5 at 151 Knots
21:47 TouchDown:Rate -454 ft/min Speed: 136 Knots
21:47 VATSIM:LFMP 302130Z AUTO 31020KT 9999NDV NSC 22/12 Q1019
21:47 Land
21:47 Wind:306º@020 Knots
21:47 Heading: 327º
21:47 Flight Duration: 00:13
21:47 Landing Weight: 196807 Lbs
21:47 POS N42º 44´ 42´´ E002º 52´ 08´´
21:53 Parking brakes on
21:53 Block to Block Duration: 00:21
21:53 Final Fuel: 10498 Lbls
21:53 Spent Fuel: 3320 Lbls
21:53 Flight Length: 43 NM
21:53 TOD Land Length: 43 NM

Exportar CSV

Powered by Drupal - Modified by Danger4k